createdAt,value
2018-06-25T00:02:10.636Z,99.90
2018-06-25T00:04:39.813Z,99.90
2018-06-25T00:07:17.335Z,99.90
2018-06-25T00:09:46.125Z,99.90
2018-06-25T00:12:17.214Z,99.90
2018-06-25T00:14:46.997Z,99.90
2018-06-25T00:17:17.165Z,99.90
2018-06-25T00:19:49.206Z,99.90
2018-06-25T00:22:19.177Z,99.90
2018-06-25T00:24:48.829Z,99.90
2018-06-25T00:27:21.760Z,99.90
2018-06-25T00:29:50.962Z,99.90
2018-06-25T00:32:23.590Z,99.90
2018-06-25T00:34:53.854Z,99.90
2018-06-25T00:37:25.324Z,99.90
2018-06-25T00:39:54.453Z,99.90
2018-06-25T00:42:26.522Z,99.90
2018-06-25T00:44:55.339Z,99.90
2018-06-25T00:47:28.601Z,99.90
2018-06-25T00:49:57.604Z,99.90
2018-06-25T00:52:34.158Z,99.90
2018-06-25T00:55:02.982Z,99.90
2018-06-25T00:57:34.259Z,99.90
2018-06-25T01:00:03.181Z,99.90
2018-06-25T01:02:35.192Z,99.90
2018-06-25T01:05:04.325Z,99.90
2018-06-25T01:07:36.392Z,99.90
2018-06-25T01:10:06.049Z,99.90
2018-06-25T01:12:38.624Z,99.90
2018-06-25T01:15:07.405Z,99.90
2018-06-25T01:17:40.473Z,99.90
2018-06-25T01:20:09.386Z,99.90
2018-06-25T01:22:45.486Z,99.90
2018-06-25T01:25:15.464Z,99.90
2018-06-25T01:27:45.164Z,99.90
2018-06-25T01:30:13.875Z,99.90
2018-06-25T01:32:47.361Z,99.90
2018-06-25T01:35:16.153Z,99.90
2018-06-25T01:37:52.560Z,99.90
2018-06-25T01:40:21.507Z,99.90
2018-06-25T01:42:51.862Z,99.90
2018-06-25T01:45:20.598Z,99.90
2018-06-25T01:47:53.820Z,99.90
2018-06-25T01:50:22.859Z,99.90
2018-06-25T01:52:59.203Z,99.90
2018-06-25T01:55:28.387Z,99.90
2018-06-25T01:57:58.438Z,99.90
2018-06-25T02:00:27.308Z,99.90
2018-06-25T02:03:00.453Z,99.90
2018-06-25T02:05:29.229Z,99.90
2018-06-25T02:08:06.093Z,99.90
2018-06-25T02:10:35.194Z,99.90
2018-06-25T02:13:06.170Z,99.90
2018-06-25T02:15:35.187Z,99.90
2018-06-25T02:18:07.349Z,99.90
2018-06-25T02:20:36.181Z,99.90
2018-06-25T02:23:12.742Z,99.90
2018-06-25T02:25:42.151Z,99.90
2018-06-25T02:28:13.272Z,99.90
2018-06-25T02:30:42.072Z,99.90
2018-06-25T02:33:14.232Z,99.90
2018-06-25T02:35:43.310Z,99.90
2018-06-25T02:38:16.034Z,99.90
2018-06-25T02:40:45.416Z,99.90
2018-06-25T02:43:17.384Z,99.90
2018-06-25T02:45:46.286Z,99.90
2018-06-25T02:48:23.008Z,99.90
2018-06-25T02:50:51.973Z,99.90
2018-06-25T02:55:50.588Z,99.90
2018-06-25T02:58:24.223Z,99.90
2018-06-25T03:00:52.945Z,99.90
2018-06-25T03:03:25.225Z,99.90
2018-06-25T03:05:54.235Z,99.90
2018-06-25T03:08:26.985Z,99.90
2018-06-25T03:10:55.969Z,99.90
2018-06-25T03:13:32.085Z,99.90
2018-06-25T03:16:00.832Z,99.90
2018-06-25T03:18:31.523Z,99.90
2018-06-25T03:21:01.307Z,99.90
2018-06-25T03:23:33.730Z,99.90
2018-06-25T03:26:02.775Z,99.90
2018-06-25T03:28:39.212Z,99.90
2018-06-25T03:31:07.972Z,99.90
2018-06-25T03:33:38.274Z,99.90
2018-06-25T03:36:07.177Z,99.90
2018-06-25T03:38:43.331Z,99.90
2018-06-25T03:41:12.298Z,99.90
2018-06-25T03:43:42.514Z,99.90
2018-06-25T03:46:11.625Z,99.90
2018-06-25T03:48:44.278Z,99.90
2018-06-25T03:51:13.137Z,99.90
2018-06-25T03:53:49.696Z,99.90
2018-06-25T03:56:18.870Z,99.90
2018-06-25T03:58:48.599Z,99.90
2018-06-25T04:01:17.879Z,99.90
2018-06-25T04:03:54.393Z,99.90
2018-06-25T04:06:23.142Z,99.90
2018-06-25T04:08:52.622Z,99.90
2018-06-25T04:11:21.433Z,99.90
2018-06-25T04:13:57.865Z,99.90
2018-06-25T04:16:26.780Z,99.90
2018-06-25T04:19:03.876Z,99.90
2018-06-25T04:21:35.423Z,99.90
2018-06-25T04:24:04.331Z,99.90
2018-06-25T04:26:33.700Z,99.90
2018-06-25T04:29:04.277Z,99.90
2018-06-25T04:31:33.030Z,99.90
2018-06-25T04:34:04.745Z,99.90
2018-06-25T04:36:33.767Z,99.90
2018-06-25T04:39:08.408Z,99.90
2018-06-25T04:41:37.146Z,99.90
2018-06-25T04:44:09.229Z,99.90
2018-06-25T04:46:37.955Z,99.90
2018-06-25T04:49:12.029Z,99.90
2018-06-25T04:51:41.034Z,99.90
2018-06-25T04:54:13.481Z,99.90
2018-06-25T04:56:42.217Z,99.90
2018-06-25T04:59:15.363Z,99.90
2018-06-25T05:01:44.388Z,99.90
2018-06-25T05:04:20.270Z,99.90
2018-06-25T05:06:49.237Z,99.90
2018-06-25T05:09:21.706Z,99.90
2018-06-25T05:11:50.505Z,99.90
2018-06-25T05:14:28.264Z,99.90
2018-06-25T05:16:57.274Z,99.90
2018-06-25T05:19:26.724Z,99.90
2018-06-25T05:21:55.772Z,99.90
2018-06-25T05:24:27.881Z,99.90
2018-06-25T05:26:56.649Z,99.90
2018-06-25T05:29:29.717Z,99.90
2018-06-25T05:31:58.818Z,99.90
2018-06-25T05:34:34.610Z,99.90
2018-06-25T05:37:03.453Z,99.90
2018-06-25T05:39:34.253Z,99.90
2018-06-25T05:42:03.592Z,99.90
2018-06-25T05:44:36.049Z,99.90
2018-06-25T05:47:04.764Z,99.90
2018-06-25T05:49:40.858Z,99.90
2018-06-25T05:52:10.692Z,99.90
2018-06-25T05:54:41.203Z,99.90
2018-06-25T05:57:10.072Z,99.90
2018-06-25T05:59:43.289Z,99.90
2018-06-25T06:02:12.093Z,99.90
2018-06-25T06:04:44.629Z,99.90
2018-06-25T06:07:14.266Z,99.90
2018-06-25T06:09:50.767Z,99.90
2018-06-25T06:12:19.674Z,99.90
2018-06-25T06:14:49.349Z,99.90
2018-06-25T06:17:18.299Z,99.90
2018-06-25T06:19:51.558Z,99.90
2018-06-25T06:22:20.716Z,99.90
2018-06-25T06:24:54.523Z,99.90
2018-06-25T06:27:23.489Z,99.90
2018-06-25T06:30:00.403Z,99.90
2018-06-25T06:32:29.265Z,99.90
2018-06-25T06:34:59.484Z,99.90
2018-06-25T06:37:28.259Z,99.90
2018-06-25T06:40:05.650Z,99.90
2018-06-25T06:42:34.450Z,99.90
2018-06-25T06:45:03.705Z,99.90
2018-06-25T06:47:33.077Z,99.90
2018-06-25T06:50:09.347Z,99.90
2018-06-25T06:52:38.776Z,99.90
2018-06-25T06:55:09.624Z,99.90
2018-06-25T06:57:38.451Z,99.90
2018-06-25T07:00:15.716Z,99.90
2018-06-25T07:02:44.572Z,99.90
2018-06-25T07:05:13.513Z,99.90
2018-06-25T07:07:42.672Z,99.90
2018-06-25T07:10:18.858Z,99.90
2018-06-25T07:12:47.867Z,99.90
2018-06-25T07:15:19.364Z,99.90
2018-06-25T07:17:48.938Z,99.90
2018-06-25T07:20:21.179Z,99.90
2018-06-25T07:22:50.027Z,99.90
2018-06-25T07:25:29.377Z,99.90
2018-06-25T07:27:59.422Z,99.90
2018-06-25T07:30:29.437Z,99.90
2018-06-25T07:32:58.258Z,99.90
2018-06-25T07:35:27.565Z,99.90
2018-06-25T07:37:57.075Z,99.90
2018-06-25T07:40:29.615Z,99.90
2018-06-25T07:42:59.419Z,99.90
2018-06-25T07:45:31.767Z,99.90
2018-06-25T07:48:01.222Z,99.90
2018-06-25T07:50:33.683Z,99.90
2018-06-25T07:53:04.389Z,99.90
2018-06-25T07:55:37.186Z,99.90
2018-06-25T07:58:06.396Z,99.90
2018-06-25T08:00:38.511Z,99.90
2018-06-25T08:03:07.821Z,99.90
2018-06-25T08:05:41.237Z,99.90
2018-06-25T08:08:11.834Z,99.90
2018-06-25T08:10:44.710Z,99.90
2018-06-25T08:13:15.168Z,99.90
2018-06-25T08:15:45.450Z,99.90
2018-06-25T08:18:14.402Z,99.90
2018-06-25T08:20:48.320Z,99.90
2018-06-25T08:23:17.262Z,99.90
2018-06-25T08:25:50.632Z,99.90
2018-06-25T08:28:20.922Z,99.90
2018-06-25T08:30:51.251Z,99.90
2018-06-25T08:33:20.711Z,99.90
2018-06-25T08:36:00.919Z,99.90
2018-06-25T08:38:30.702Z,99.90
2018-06-25T08:41:16.247Z,99.90
2018-06-25T08:43:45.208Z,99.90
2018-06-25T08:46:14.479Z,99.90
2018-06-25T08:48:43.788Z,99.90
2018-06-25T08:51:14.068Z,99.90
2018-06-25T08:53:43.173Z,99.90
2018-06-25T08:56:14.168Z,99.90
2018-06-25T08:58:43.107Z,99.90
2018-06-25T09:01:12.204Z,99.90
2018-06-25T09:03:42.931Z,99.90
2018-06-25T09:06:12.000Z,99.90
2018-06-25T09:08:41.076Z,99.90
2018-06-25T09:11:10.099Z,99.90
2018-06-25T09:13:40.062Z,99.90
2018-06-25T09:16:12.715Z,99.90
2018-06-25T09:18:41.677Z,99.90
2018-06-25T09:21:14.386Z,99.90
2018-06-25T09:23:43.477Z,99.90
2018-06-25T09:26:18.230Z,99.90
2018-06-25T09:28:47.300Z,99.90
2018-06-25T09:31:18.793Z,99.90
2018-06-25T09:33:48.160Z,99.90
2018-06-25T09:36:21.297Z,99.90
2018-06-25T09:38:51.389Z,99.90
2018-06-25T09:41:24.256Z,99.90
2018-06-25T09:43:53.161Z,99.90
2018-06-25T09:46:25.181Z,99.90
2018-06-25T09:48:54.115Z,99.90
2018-06-25T09:51:27.192Z,99.90
2018-06-25T09:53:55.967Z,99.90
2018-06-25T09:56:29.330Z,99.90
2018-06-25T09:59:00.265Z,99.90
2018-06-25T10:01:30.648Z,99.90
2018-06-25T10:04:00.320Z,99.90
2018-06-25T10:06:33.696Z,99.90
2018-06-25T10:09:02.975Z,99.90
2018-06-25T10:11:35.447Z,99.90
2018-06-25T10:14:04.814Z,99.90
2018-06-25T10:16:37.465Z,99.90
2018-06-25T10:19:07.104Z,99.90
2018-06-25T10:21:40.534Z,99.90
2018-06-25T10:24:09.468Z,99.90
2018-06-25T10:26:42.589Z,99.90
2018-06-25T10:29:11.357Z,99.90
2018-06-25T10:31:48.429Z,99.90
2018-06-25T10:34:17.666Z,99.90
2018-06-25T10:36:46.775Z,99.90
2018-06-25T10:39:15.586Z,99.90
2018-06-25T10:41:48.409Z,99.90
2018-06-25T10:44:18.316Z,99.90
2018-06-25T10:46:50.427Z,99.90
2018-06-25T10:49:19.299Z,99.90
2018-06-25T10:51:52.679Z,99.90
2018-06-25T10:54:21.835Z,99.90
2018-06-25T10:56:58.197Z,99.90
2018-06-25T10:59:27.167Z,99.90
2018-06-25T11:01:56.302Z,99.90
2018-06-25T11:04:25.201Z,99.90
2018-06-25T11:06:58.588Z,99.90
2018-06-25T11:09:30.013Z,99.90
2018-06-25T11:14:30.624Z,99.90
2018-06-25T11:17:09.610Z,99.90
2018-06-25T11:19:39.333Z,99.90
2018-06-25T11:22:08.176Z,99.90
2018-06-25T11:24:38.194Z,99.90
2018-06-25T11:27:08.307Z,99.90
2018-06-25T11:29:37.625Z,99.90
2018-06-25T11:32:11.054Z,99.90
2018-06-25T11:34:40.314Z,99.90
2018-06-25T11:37:13.464Z,99.90
2018-06-25T11:39:42.627Z,99.90
2018-06-25T11:42:17.095Z,99.90
2018-06-25T11:44:46.246Z,99.90
2018-06-25T11:47:19.230Z,99.00
2018-06-25T11:49:48.149Z,99.30
2018-06-25T11:52:18.627Z,99.40
2018-06-25T11:54:47.848Z,99.60
2018-06-25T11:57:27.417Z,99.20
2018-06-25T11:59:56.711Z,99.50
2018-06-25T12:02:25.915Z,99.10
2018-06-25T12:04:55.336Z,99.70
2018-06-25T12:07:24.494Z,99.90
2018-06-25T12:09:54.682Z,99.90
2018-06-25T12:12:28.230Z,99.90
2018-06-25T12:15:02.855Z,99.90
2018-06-25T12:17:32.237Z,99.90
2018-06-25T12:20:02.712Z,99.40
2018-06-25T12:22:32.621Z,99.70
2018-06-25T12:25:01.465Z,99.90
2018-06-25T12:27:32.349Z,99.50
2018-06-25T12:30:01.603Z,99.20
2018-06-25T12:32:37.930Z,99.20
2018-06-25T12:35:07.072Z,99.40
2018-06-25T12:37:37.397Z,99.10
2018-06-25T12:43:14.938Z,98.50
2018-06-25T12:45:45.443Z,98.30
2018-06-25T12:48:15.507Z,99.90
2018-06-25T12:50:46.050Z,98.20
2018-06-25T12:53:15.118Z,97.90
2018-06-25T12:55:46.781Z,98.30
2018-06-25T12:58:15.599Z,98.40
2018-06-25T13:00:48.730Z,98.40
2018-06-25T13:03:22.549Z,97.60
2018-06-25T13:05:54.796Z,97.20
2018-06-25T13:08:23.705Z,98.80
2018-06-25T13:10:52.813Z,97.20
2018-06-25T13:13:22.241Z,97.00
2018-06-25T13:15:54.899Z,96.90
2018-06-25T13:18:27.486Z,98.60
2018-06-25T13:21:01.844Z,98.10
2018-06-25T13:23:34.705Z,97.50
2018-06-25T13:26:06.798Z,97.30
2018-06-25T13:28:35.718Z,95.80
2018-06-25T13:31:06.428Z,96.40
2018-06-25T13:33:37.412Z,95.90
2018-06-25T13:36:08.312Z,95.60
2018-06-25T13:38:38.186Z,95.50
2018-06-25T13:41:07.319Z,97.20
2018-06-25T13:43:36.728Z,95.00
2018-06-25T13:46:08.899Z,96.50
2018-06-25T13:48:38.070Z,96.20
2018-06-25T13:53:51.204Z,94.10
2018-06-25T13:56:23.668Z,95.00
2018-06-25T13:58:54.054Z,94.80
2018-06-25T14:01:27.573Z,93.20
2018-06-25T14:03:59.112Z,93.60
2018-06-25T14:06:29.741Z,95.70
2018-06-25T14:09:00.776Z,95.80
2018-06-25T14:11:30.328Z,92.80
2018-06-25T14:13:59.773Z,93.00
2018-06-25T14:16:31.281Z,93.70
2018-06-25T14:19:04.745Z,95.00
2018-06-25T14:21:37.968Z,95.60
2018-06-25T14:24:14.268Z,95.00
2018-06-25T14:26:44.737Z,94.30
2018-06-25T14:29:26.961Z,93.90
2018-06-25T14:32:00.418Z,92.60
2018-06-25T14:34:30.273Z,92.90
2018-06-25T14:37:03.316Z,93.10
2018-06-25T14:44:01.501Z,93.80
2018-06-25T14:46:34.203Z,92.80
2018-06-25T14:49:03.259Z,93.30
2018-06-25T14:51:39.784Z,92.60
2018-06-25T14:54:08.604Z,92.70
2018-06-25T14:56:39.198Z,91.80
2018-06-25T14:59:08.219Z,92.10
2018-06-25T15:01:46.284Z,92.30
2018-06-25T15:04:16.740Z,90.10
2018-06-25T15:06:45.732Z,90.60
2018-06-25T15:09:15.908Z,91.30
2018-06-25T15:11:48.590Z,92.00
2018-06-25T15:14:19.610Z,91.60
2018-06-25T15:16:51.299Z,92.20
2018-06-25T15:19:21.223Z,93.10
2018-06-25T15:21:52.674Z,92.00
2018-06-25T15:24:22.754Z,91.90
2018-06-25T15:26:54.993Z,92.40
2018-06-25T15:29:24.785Z,92.10
2018-06-25T15:31:55.769Z,92.60
2018-06-25T15:36:58.616Z,91.80
2018-06-25T15:39:31.093Z,91.80
2018-06-25T15:42:00.625Z,92.10
2018-06-25T15:44:33.898Z,91.50
2018-06-25T15:47:05.339Z,91.40
2018-06-25T15:52:18.525Z,90.90
2018-06-25T15:54:48.462Z,91.20
2018-06-25T15:57:17.389Z,91.10
2018-06-25T15:59:46.906Z,90.50
2018-06-25T16:02:16.144Z,91.00
2018-06-25T16:04:45.439Z,91.00
2018-06-25T16:07:19.772Z,91.20
2018-06-25T16:09:50.773Z,91.60
2018-06-25T16:12:20.176Z,91.20
2018-06-25T16:14:49.662Z,91.30
2018-06-25T16:17:19.842Z,92.80
2018-06-25T16:19:51.299Z,90.90
2018-06-25T16:22:23.401Z,91.30
2018-06-25T16:24:52.812Z,92.60
2018-06-25T16:27:23.072Z,92.90
2018-06-25T16:29:57.160Z,91.90
2018-06-25T16:32:27.791Z,92.20
2018-06-25T16:35:28.132Z,93.10
2018-06-25T16:38:00.267Z,92.90
2018-06-25T16:40:31.844Z,92.60
2018-06-25T16:43:03.459Z,92.80
2018-06-25T16:45:33.944Z,92.80
2018-06-25T16:48:03.176Z,92.40
2018-06-25T16:50:33.259Z,93.20
2018-06-25T16:53:02.604Z,93.40
2018-06-25T16:55:34.401Z,92.80
2018-06-25T16:58:04.025Z,92.60
2018-06-25T17:00:33.712Z,92.30
2018-06-25T17:03:05.354Z,92.60
2018-06-25T17:05:39.051Z,92.20
2018-06-25T17:08:09.253Z,93.20
2018-06-25T17:10:38.714Z,94.00
2018-06-25T17:13:07.754Z,93.40
2018-06-25T17:15:44.949Z,92.10
2018-06-25T17:20:52.619Z,92.60
2018-06-25T17:23:23.689Z,92.50
2018-06-25T17:25:54.541Z,92.60
2018-06-25T17:28:25.300Z,91.90
2018-06-25T17:30:55.420Z,92.10
2018-06-25T17:33:26.429Z,92.40
2018-06-25T17:35:56.296Z,91.80
2018-06-25T17:38:26.202Z,92.80
2018-06-25T17:41:00.099Z,92.90
2018-06-25T17:43:32.926Z,92.40
2018-06-25T17:46:02.324Z,92.60
2018-06-25T17:48:33.930Z,92.30
2018-06-25T17:51:14.048Z,92.20
2018-06-25T17:54:03.209Z,92.70
2018-06-25T17:56:35.630Z,92.00
2018-06-25T17:59:08.098Z,92.20
2018-06-25T18:01:38.443Z,90.90
2018-06-25T18:04:08.390Z,91.20
2018-06-25T18:06:38.835Z,92.50
2018-06-25T18:09:11.308Z,91.30
2018-06-25T18:11:42.222Z,91.90
2018-06-25T18:14:14.788Z,91.10
2018-06-25T18:16:44.828Z,91.10
2018-06-25T18:19:15.429Z,91.10
2018-06-25T18:21:46.779Z,91.80
2018-06-25T18:24:17.252Z,93.00
2018-06-25T18:26:49.220Z,92.60
2018-06-25T18:29:22.810Z,92.10
2018-06-25T18:31:54.489Z,93.00
2018-06-25T18:34:28.601Z,93.80
2018-06-25T18:36:58.878Z,92.80
2018-06-25T18:39:30.767Z,92.70
2018-06-25T18:42:01.288Z,92.90
2018-06-25T18:44:32.279Z,92.70
2018-06-25T18:47:05.460Z,93.20
2018-06-25T18:49:37.007Z,94.10
2018-06-25T18:52:08.703Z,94.20
2018-06-25T18:54:40.014Z,95.30
2018-06-25T18:57:09.745Z,93.60
2018-06-25T18:59:40.172Z,94.50
2018-06-25T19:02:10.715Z,94.50
2018-06-25T19:04:40.347Z,95.10
2018-06-25T19:07:14.840Z,94.80
2018-06-25T19:09:47.590Z,94.70
2018-06-25T19:12:17.231Z,94.90
2018-06-25T19:14:46.753Z,95.30
2018-06-25T19:17:17.165Z,96.10
2018-06-25T19:19:52.103Z,95.80
2018-06-25T19:25:02.793Z,95.40
2018-06-25T19:27:35.220Z,96.90
2018-06-25T19:30:04.657Z,96.70
2018-06-25T19:32:37.981Z,97.00
2018-06-25T19:35:10.573Z,97.60
2018-06-25T19:37:39.831Z,97.30
2018-06-25T19:40:11.936Z,97.80
2018-06-25T19:42:42.163Z,97.80
2018-06-25T19:45:28.834Z,97.80
2018-06-25T19:48:01.149Z,97.80
2018-06-25T19:50:30.295Z,98.30
2018-06-25T19:53:03.570Z,97.90
2018-06-25T19:58:19.679Z,98.00
2018-06-25T20:00:49.435Z,98.10
2018-06-25T20:03:20.266Z,98.70
2018-06-25T20:05:51.253Z,98.50
2018-06-25T20:08:21.037Z,98.60
2018-06-25T20:10:59.711Z,99.00
2018-06-25T20:13:32.470Z,99.10
2018-06-25T20:16:08.293Z,98.50
2018-06-25T20:18:39.427Z,98.30
2018-06-25T20:21:14.664Z,98.40
2018-06-25T20:23:45.734Z,98.50
2018-06-25T20:26:15.257Z,98.50
2018-06-25T20:28:45.622Z,98.90
2018-06-25T20:31:16.054Z,98.70
2018-06-25T20:33:46.570Z,98.90
2018-06-25T20:36:16.281Z,99.30
2018-06-25T20:38:46.286Z,98.90
2018-06-25T20:41:16.246Z,98.60
2018-06-25T20:43:45.247Z,98.60
2018-06-25T20:46:15.687Z,98.80
2018-06-25T20:48:45.789Z,98.50
2018-06-25T20:51:15.061Z,99.20
2018-06-25T20:53:45.216Z,99.10
2018-06-25T20:56:14.321Z,99.20
2018-06-25T20:58:44.007Z,99.10
2018-06-25T21:01:15.733Z,99.50
2018-06-25T21:03:45.844Z,99.40
2018-06-25T21:06:21.155Z,99.50
2018-06-25T21:08:51.588Z,99.20
2018-06-25T21:11:23.194Z,99.30
2018-06-25T21:13:53.266Z,99.70
2018-06-25T21:16:24.109Z,99.80
2018-06-25T21:18:53.825Z,99.40
2018-06-25T21:21:23.388Z,99.80
2018-06-25T21:24:02.438Z,99.30
2018-06-25T21:26:31.785Z,99.90
2018-06-25T21:29:08.391Z,99.50
2018-06-25T21:31:39.358Z,99.90
2018-06-25T21:34:13.468Z,99.80
2018-06-25T21:36:44.152Z,99.90
2018-06-25T21:39:13.714Z,99.90
2018-06-25T21:41:44.192Z,99.90
2018-06-25T21:44:16.807Z,99.90
2018-06-25T21:46:46.582Z,99.90
2018-06-25T21:49:17.583Z,99.90
2018-06-25T21:51:48.036Z,99.90
2018-06-25T21:54:17.670Z,99.30
2018-06-25T21:56:50.196Z,99.80
2018-06-25T21:59:23.365Z,99.50
2018-06-25T22:01:56.169Z,99.10
2018-06-25T22:04:28.050Z,99.70
2018-06-25T22:06:57.917Z,99.40
2018-06-25T22:09:29.843Z,99.50
2018-06-25T22:11:59.368Z,99.30
2018-06-25T22:14:29.637Z,99.10
2018-06-25T22:16:59.774Z,98.90
2018-06-25T22:19:29.723Z,99.30
2018-06-25T22:22:00.119Z,99.50
2018-06-25T22:24:30.256Z,99.20
2018-06-25T22:27:01.178Z,99.10
2018-06-25T22:29:30.202Z,99.60
2018-06-25T22:32:00.110Z,99.70
2018-06-25T22:34:35.656Z,99.30
2018-06-25T22:37:06.315Z,99.60
2018-06-25T22:39:36.733Z,99.90
2018-06-25T22:42:06.470Z,99.90
2018-06-25T22:44:36.723Z,99.90
2018-06-25T22:47:11.372Z,99.90
2018-06-25T22:49:43.183Z,99.90
2018-06-25T22:52:12.512Z,99.90
2018-06-25T22:54:43.590Z,99.90
2018-06-25T22:57:13.643Z,99.90
2018-06-25T22:59:42.975Z,99.90
2018-06-25T23:02:12.581Z,99.90
2018-06-25T23:04:42.446Z,99.90
2018-06-25T23:07:14.576Z,99.90
2018-06-25T23:09:44.132Z,99.90
2018-06-25T23:12:14.203Z,99.90
2018-06-25T23:14:46.078Z,99.90
2018-06-25T23:17:15.555Z,99.90
2018-06-25T23:19:44.541Z,99.90
2018-06-25T23:22:14.413Z,99.90
2018-06-25T23:24:43.473Z,99.90
2018-06-25T23:27:16.528Z,99.90
2018-06-25T23:29:46.266Z,99.90
2018-06-25T23:32:18.592Z,99.90
2018-06-25T23:34:47.509Z,99.90
2018-06-25T23:37:25.616Z,99.90
2018-06-25T23:39:55.712Z,99.90
2018-06-25T23:42:24.705Z,99.90
2018-06-25T23:44:55.329Z,99.90
2018-06-25T23:47:24.678Z,99.90
2018-06-25T23:49:53.771Z,99.90
2018-06-25T23:52:27.853Z,99.90
2018-06-25T23:54:57.081Z,99.90
2018-06-25T23:57:29.648Z,99.90
2018-06-25T23:59:59.249Z,99.90
